createdAt,value
2017-09-22T00:01:28.973Z,14.32
2017-09-22T00:03:57.279Z,14.30
2017-09-22T00:06:26.371Z,14.27
2017-09-22T00:08:54.743Z,14.24
2017-09-22T00:11:23.083Z,14.21
2017-09-22T00:13:51.476Z,14.16
2017-09-22T00:16:19.785Z,14.11
2017-09-22T00:18:48.095Z,14.07
2017-09-22T00:21:17.175Z,14.04
2017-09-22T00:23:45.510Z,14.01
2017-09-22T00:26:13.807Z,13.97
2017-09-22T00:28:42.143Z,13.95
2017-09-22T00:31:11.229Z,13.92
2017-09-22T00:33:40.318Z,13.88
2017-09-22T00:36:08.617Z,13.90
2017-09-22T00:38:37.691Z,13.87
2017-09-22T00:41:05.990Z,13.86
2017-09-22T00:43:35.100Z,13.82
2017-09-22T00:46:04.227Z,13.81
2017-09-22T00:48:32.559Z,13.80
2017-09-22T00:51:00.864Z,13.77
2017-09-22T00:53:29.171Z,13.76
2017-09-22T00:55:57.489Z,13.74
2017-09-22T00:58:27.413Z,13.73
2017-09-22T01:00:56.503Z,13.71
2017-09-22T01:03:24.820Z,13.68
2017-09-22T01:05:53.950Z,13.64
2017-09-22T01:08:22.341Z,13.60
2017-09-22T01:10:50.662Z,13.56
2017-09-22T01:13:19.004Z,13.55
2017-09-22T01:15:47.314Z,13.50
2017-09-22T01:18:15.646Z,13.47
2017-09-22T01:20:43.958Z,13.43
2017-09-22T01:23:12.282Z,13.39
2017-09-22T01:25:40.642Z,13.36
2017-09-22T01:28:08.980Z,13.32
2017-09-22T01:30:37.311Z,13.30
2017-09-22T01:33:05.634Z,13.27
2017-09-22T01:35:33.980Z,13.25
2017-09-22T01:38:02.284Z,13.23
2017-09-22T01:40:31.390Z,13.19
2017-09-22T01:43:00.462Z,13.17
2017-09-22T01:45:28.777Z,13.15
2017-09-22T01:47:57.850Z,13.12
2017-09-22T01:50:26.182Z,13.11
2017-09-22T01:52:54.548Z,13.09
2017-09-22T01:55:22.873Z,13.06
2017-09-22T01:57:51.178Z,13.04
2017-09-22T02:00:19.488Z,13.03
2017-09-22T02:02:48.651Z,13.00
2017-09-22T02:05:17.027Z,12.97
2017-09-22T02:07:45.334Z,12.95
2017-09-22T02:10:14.408Z,12.92
2017-09-22T02:12:42.734Z,12.91
2017-09-22T02:15:11.050Z,12.87
2017-09-22T02:17:39.375Z,12.86
2017-09-22T02:20:08.464Z,12.85
2017-09-22T02:22:36.772Z,12.87
2017-09-22T02:25:05.870Z,12.87
2017-09-22T02:27:34.960Z,12.86
2017-09-22T02:30:04.061Z,12.87
2017-09-22T02:32:33.137Z,12.88
2017-09-22T02:35:01.436Z,12.88
2017-09-22T02:37:29.779Z,12.90
2017-09-22T02:39:58.087Z,12.92
2017-09-22T02:42:26.411Z,12.92
2017-09-22T02:44:54.738Z,12.95
2017-09-22T02:47:23.098Z,12.99
2017-09-22T02:49:51.416Z,13.00
2017-09-22T02:52:19.733Z,13.01
2017-09-22T02:54:48.062Z,13.01
2017-09-22T02:57:16.372Z,13.01
2017-09-22T02:59:44.693Z,13.00
2017-09-22T03:02:13.014Z,13.00
2017-09-22T03:04:41.320Z,13.02
2017-09-22T03:07:10.402Z,13.02
2017-09-22T03:09:38.743Z,12.99
2017-09-22T03:12:07.056Z,12.97
2017-09-22T03:14:35.361Z,12.94
2017-09-22T03:17:03.690Z,12.91
2017-09-22T03:19:32.068Z,12.88
2017-09-22T03:22:00.377Z,12.84
2017-09-22T03:24:28.700Z,12.82
2017-09-22T03:26:57.778Z,12.78
2017-09-22T03:29:26.094Z,12.77
2017-09-22T03:31:54.401Z,12.76
2017-09-22T03:34:22.698Z,12.74
2017-09-22T03:36:51.007Z,12.73
2017-09-22T03:39:19.318Z,12.71
2017-09-22T03:41:48.391Z,12.71
2017-09-22T03:44:16.714Z,12.69
2017-09-22T03:46:45.020Z,12.67
2017-09-22T03:49:13.348Z,12.66
2017-09-22T03:51:42.433Z,12.62
2017-09-22T03:54:10.759Z,12.59
2017-09-22T03:56:39.081Z,12.57
2017-09-22T03:59:07.383Z,12.53
2017-09-22T04:01:35.698Z,12.52
2017-09-22T04:04:04.018Z,12.50
2017-09-22T04:06:32.337Z,12.47
2017-09-22T04:09:01.422Z,12.44
2017-09-22T04:11:29.736Z,12.42
2017-09-22T04:13:58.052Z,12.41
2017-09-22T04:16:26.381Z,12.40
2017-09-22T04:18:55.441Z,12.38
2017-09-22T04:21:23.744Z,12.37
2017-09-22T04:23:52.072Z,12.37
2017-09-22T04:26:20.384Z,12.34
2017-09-22T04:28:48.703Z,12.33
2017-09-22T04:31:17.081Z,12.32
2017-09-22T04:33:45.381Z,12.32
2017-09-22T04:36:14.453Z,12.31
2017-09-22T04:38:42.761Z,12.32
2017-09-22T04:41:11.835Z,12.31
2017-09-22T04:43:40.175Z,12.31
2017-09-22T04:46:08.497Z,12.31
2017-09-22T04:48:36.821Z,12.32
2017-09-22T04:51:05.123Z,12.30
2017-09-22T04:53:33.438Z,12.29
2017-09-22T04:56:01.776Z,12.29
2017-09-22T04:58:30.086Z,12.27
2017-09-22T05:00:58.409Z,12.28
2017-09-22T05:03:27.506Z,12.26
2017-09-22T05:05:56.575Z,12.22
2017-09-22T05:08:24.891Z,12.20
2017-09-22T05:10:53.975Z,12.18
2017-09-22T05:13:22.280Z,12.17
2017-09-22T05:15:50.612Z,12.17
2017-09-22T05:18:18.916Z,12.16
2017-09-22T05:20:47.225Z,12.16
2017-09-22T05:23:15.577Z,12.19
2017-09-22T05:25:43.900Z,12.21
2017-09-22T05:28:12.201Z,12.26
2017-09-22T05:30:40.523Z,12.28
2017-09-22T05:33:08.829Z,12.26
2017-09-22T05:35:37.885Z,12.25
2017-09-22T05:38:06.247Z,12.26
2017-09-22T05:40:34.569Z,12.27
2017-09-22T05:43:02.877Z,12.33
2017-09-22T05:45:31.971Z,12.45
2017-09-22T05:48:01.049Z,12.53
2017-09-22T05:50:29.350Z,12.63
2017-09-22T05:52:58.428Z,12.73
2017-09-22T05:55:26.737Z,12.84
2017-09-22T05:57:55.795Z,12.95
2017-09-22T06:00:24.157Z,13.04
2017-09-22T06:02:52.460Z,13.15
2017-09-22T06:05:20.787Z,13.23
2017-09-22T06:07:49.111Z,13.32
2017-09-22T06:10:17.438Z,13.44
2017-09-22T06:12:47.266Z,13.61
2017-09-22T06:15:16.337Z,13.77
2017-09-22T06:17:44.649Z,13.92
2017-09-22T06:20:12.973Z,14.03
2017-09-22T06:22:41.286Z,14.14
2017-09-22T06:25:09.624Z,14.27
2017-09-22T06:27:37.965Z,14.41
2017-09-22T06:30:07.035Z,14.57
2017-09-22T06:32:35.361Z,14.67
2017-09-22T06:35:03.703Z,14.81
2017-09-22T06:37:32.013Z,14.92
2017-09-22T06:40:01.089Z,14.99
2017-09-22T06:42:29.395Z,15.05
2017-09-22T06:44:58.468Z,15.11
2017-09-22T06:47:26.772Z,15.19
2017-09-22T06:49:55.857Z,15.30
2017-09-22T06:52:24.177Z,15.43
2017-09-22T06:54:52.487Z,15.58
2017-09-22T06:57:20.831Z,15.77
2017-09-22T06:59:49.146Z,15.95
2017-09-22T07:02:17.467Z,16.11
2017-09-22T07:04:47.890Z,16.24
2017-09-22T07:07:16.989Z,16.27
2017-09-22T07:09:45.311Z,16.29
2017-09-22T07:12:13.630Z,16.31
2017-09-22T07:14:41.944Z,16.29
2017-09-22T07:17:10.257Z,16.25
2017-09-22T07:19:38.601Z,16.25
2017-09-22T07:22:06.926Z,16.27
2017-09-22T07:24:35.255Z,16.26
2017-09-22T07:27:04.349Z,16.28
2017-09-22T07:29:32.684Z,16.29
2017-09-22T07:32:01.011Z,16.32
2017-09-22T07:34:29.325Z,16.38
2017-09-22T07:36:58.437Z,16.42
2017-09-22T07:39:26.746Z,16.43
2017-09-22T07:41:55.067Z,16.49
2017-09-22T07:44:23.397Z,16.58
2017-09-22T07:46:51.698Z,16.65
2017-09-22T07:49:20.023Z,16.69
2017-09-22T07:51:48.354Z,16.71
2017-09-22T07:54:16.737Z,16.73
2017-09-22T07:56:45.058Z,16.78
2017-09-22T07:59:13.394Z,16.84
2017-09-22T08:01:41.695Z,16.90
2017-09-22T08:04:10.009Z,16.94
2017-09-22T08:06:38.332Z,17.02
2017-09-22T08:09:06.716Z,17.02
2017-09-22T08:11:35.052Z,17.08
2017-09-22T08:14:03.375Z,17.14
2017-09-22T08:16:31.706Z,17.25
2017-09-22T08:19:00.037Z,17.38
2017-09-22T08:21:28.387Z,17.49
2017-09-22T08:23:56.721Z,17.61
2017-09-22T08:26:25.037Z,17.82
2017-09-22T08:28:53.338Z,18.05
2017-09-22T08:31:21.681Z,18.25
2017-09-22T08:33:50.027Z,18.42
2017-09-22T08:36:19.089Z,18.57
2017-09-22T08:38:47.430Z,18.73
2017-09-22T08:41:15.758Z,18.87
2017-09-22T08:43:44.090Z,18.97
2017-09-22T08:46:12.435Z,19.02
2017-09-22T08:48:41.521Z,19.02
2017-09-22T08:51:09.843Z,19.04
2017-09-22T08:53:38.172Z,19.06
2017-09-22T08:56:06.505Z,19.04
2017-09-22T08:58:34.830Z,19.02
2017-09-22T09:01:03.132Z,18.94
2017-09-22T09:03:31.473Z,18.83
2017-09-22T09:05:59.780Z,18.72
2017-09-22T09:08:29.602Z,18.69
2017-09-22T09:10:57.920Z,18.68
2017-09-22T09:13:26.230Z,18.72
2017-09-22T09:15:54.560Z,18.81
2017-09-22T09:18:22.925Z,18.91
2017-09-22T09:20:51.248Z,18.96
2017-09-22T09:23:19.558Z,18.95
2017-09-22T09:25:47.900Z,18.88
2017-09-22T09:28:16.989Z,18.84
2017-09-22T09:30:46.082Z,18.79
2017-09-22T09:33:14.404Z,18.74
2017-09-22T09:35:42.722Z,18.67
2017-09-22T09:38:11.034Z,18.67
2017-09-22T09:40:39.348Z,18.65
2017-09-22T09:43:07.670Z,18.62
2017-09-22T09:45:35.987Z,18.64
2017-09-22T09:48:05.080Z,18.80
2017-09-22T09:50:33.401Z,18.96
2017-09-22T09:53:01.738Z,19.11
2017-09-22T09:55:30.066Z,19.28
2017-09-22T09:57:58.392Z,19.39
2017-09-22T10:00:26.745Z,19.43
2017-09-22T10:02:55.076Z,19.42
2017-09-22T10:05:24.713Z,19.31
2017-09-22T10:07:53.039Z,19.08
2017-09-22T10:10:21.351Z,18.89
2017-09-22T10:12:50.420Z,18.75
2017-09-22T10:15:18.749Z,18.66
2017-09-22T10:17:47.085Z,18.64
2017-09-22T10:20:15.405Z,18.61
2017-09-22T10:22:44.479Z,18.69
2017-09-22T10:25:12.858Z,18.86
2017-09-22T10:27:41.188Z,19.04
2017-09-22T10:30:09.504Z,19.24
2017-09-22T10:32:37.852Z,19.37
2017-09-22T10:35:06.153Z,19.49
2017-09-22T10:37:34.468Z,19.60
2017-09-22T10:40:02.809Z,19.64
2017-09-22T10:42:31.115Z,19.62
2017-09-22T10:44:59.432Z,19.58
2017-09-22T10:47:28.515Z,19.60
2017-09-22T10:49:56.848Z,19.78
2017-09-22T10:52:25.176Z,19.98
2017-09-22T10:54:53.491Z,20.12
2017-09-22T10:57:22.567Z,20.20
2017-09-22T10:59:50.866Z,20.25
2017-09-22T11:02:20.064Z,20.27
2017-09-22T11:04:49.165Z,20.25
2017-09-22T11:07:18.234Z,20.20
2017-09-22T11:09:46.563Z,20.13
2017-09-22T11:12:14.890Z,20.08
2017-09-22T11:14:43.215Z,20.05
2017-09-22T11:17:12.328Z,19.92
2017-09-22T11:19:40.633Z,19.81
2017-09-22T11:22:08.948Z,19.70
2017-09-22T11:24:37.291Z,19.53
2017-09-22T11:27:05.597Z,19.37
2017-09-22T11:29:33.914Z,19.25
2017-09-22T11:32:02.228Z,19.14
2017-09-22T11:34:30.545Z,19.06
2017-09-22T11:36:58.846Z,18.92
2017-09-22T11:39:27.191Z,18.72
2017-09-22T11:41:55.533Z,18.69
2017-09-22T11:44:24.599Z,18.68
2017-09-22T11:46:52.934Z,18.77
2017-09-22T11:49:21.246Z,18.85
2017-09-22T11:51:49.565Z,18.94
2017-09-22T11:54:18.677Z,19.16
2017-09-22T11:56:47.742Z,19.42
2017-09-22T11:59:16.814Z,19.62
2017-09-22T12:01:45.145Z,19.81
2017-09-22T12:04:14.223Z,19.96
2017-09-22T12:06:42.522Z,20.06
2017-09-22T12:09:11.615Z,20.13
2017-09-22T12:11:39.910Z,20.27
2017-09-22T12:14:08.980Z,20.69
2017-09-22T12:16:37.284Z,21.16
2017-09-22T12:19:06.415Z,21.26
2017-09-22T12:21:34.787Z,21.22
2017-09-22T12:24:03.104Z,21.05
2017-09-22T12:26:31.412Z,20.77
2017-09-22T12:29:00.264Z,20.49
2017-09-22T12:31:28.645Z,20.20
2017-09-22T12:33:56.985Z,19.89
2017-09-22T12:36:25.299Z,19.58
2017-09-22T12:38:53.630Z,19.33
2017-09-22T12:41:21.923Z,19.17
2017-09-22T12:43:50.234Z,19.13
2017-09-22T12:46:19.309Z,19.13
2017-09-22T12:48:47.601Z,19.19
2017-09-22T12:51:16.673Z,19.28
2017-09-22T12:53:44.989Z,19.45
2017-09-22T12:56:14.057Z,19.59
2017-09-22T12:58:42.375Z,19.58
2017-09-22T13:01:11.505Z,19.44
2017-09-22T13:03:39.794Z,19.24
2017-09-22T13:06:08.101Z,19.15
2017-09-22T13:08:36.406Z,19.11
2017-09-22T13:11:05.491Z,19.09
2017-09-22T13:13:33.797Z,19.09
2017-09-22T13:16:02.897Z,19.13
2017-09-22T13:18:32.203Z,19.14
2017-09-22T13:21:01.265Z,19.14
2017-09-22T13:23:29.589Z,19.14
2017-09-22T13:25:57.901Z,19.19
2017-09-22T13:28:26.199Z,19.25
2017-09-22T13:30:54.508Z,19.32
2017-09-22T13:33:23.625Z,19.36
2017-09-22T13:35:52.681Z,19.43
2017-09-22T13:38:20.992Z,19.42
2017-09-22T13:40:50.205Z,19.49
2017-09-22T13:43:19.273Z,19.56
2017-09-22T13:45:47.588Z,19.60
2017-09-22T13:48:16.649Z,19.63
2017-09-22T13:50:44.957Z,19.64
2017-09-22T13:53:14.090Z,19.66
2017-09-22T13:55:42.389Z,19.60
2017-09-22T13:58:10.701Z,19.56
2017-09-22T14:00:39.043Z,19.57
2017-09-22T14:03:07.344Z,19.55
2017-09-22T14:05:35.669Z,19.47
2017-09-22T14:08:05.482Z,19.39
2017-09-22T14:10:34.572Z,19.34
2017-09-22T14:13:02.891Z,19.33
2017-09-22T14:15:31.240Z,19.39
2017-09-22T14:17:59.576Z,19.47
2017-09-22T14:20:27.914Z,19.55
2017-09-22T14:22:57.036Z,19.57
2017-09-22T14:25:25.357Z,19.55
2017-09-22T14:27:53.679Z,19.51
2017-09-22T14:30:22.753Z,19.37
2017-09-22T14:32:51.071Z,19.22
2017-09-22T14:35:19.384Z,19.07
2017-09-22T14:37:47.703Z,18.97
2017-09-22T14:40:16.016Z,18.93
2017-09-22T14:42:44.332Z,18.91
2017-09-22T14:45:12.662Z,18.91
2017-09-22T14:47:41.733Z,18.89
2017-09-22T14:50:10.031Z,18.91
2017-09-22T14:52:38.334Z,18.94
2017-09-22T14:55:06.640Z,18.93
2017-09-22T14:57:34.973Z,18.93
2017-09-22T15:00:03.285Z,18.91
2017-09-22T15:02:31.578Z,18.89
2017-09-22T15:04:59.887Z,18.85
2017-09-22T15:07:28.180Z,18.85
2017-09-22T15:09:56.478Z,18.89
2017-09-22T15:12:24.810Z,18.91
2017-09-22T15:14:53.110Z,18.89
2017-09-22T15:17:21.422Z,18.91
2017-09-22T15:19:49.741Z,19.03
2017-09-22T15:22:18.048Z,19.16
2017-09-22T15:24:46.372Z,19.31
2017-09-22T15:27:14.704Z,19.49
2017-09-22T15:29:43.006Z,19.60
2017-09-22T15:32:11.298Z,19.65
2017-09-22T15:34:39.618Z,19.76
2017-09-22T15:37:08.690Z,19.85
2017-09-22T15:39:37.002Z,19.86
2017-09-22T15:42:06.090Z,19.85
2017-09-22T15:44:35.165Z,19.80
2017-09-22T15:47:03.510Z,19.81
2017-09-22T15:49:31.824Z,19.89
2017-09-22T15:52:00.141Z,20.02
2017-09-22T15:54:29.232Z,20.10
2017-09-22T15:56:58.307Z,20.13
2017-09-22T15:59:26.635Z,20.14
2017-09-22T16:01:54.952Z,20.14
2017-09-22T16:04:23.258Z,20.05
2017-09-22T16:06:51.562Z,19.98
2017-09-22T16:09:20.682Z,19.89
2017-09-22T16:11:48.988Z,19.68
2017-09-22T16:14:17.302Z,19.49
2017-09-22T16:16:45.630Z,19.28
2017-09-22T16:19:13.925Z,19.08
2017-09-22T16:21:42.213Z,18.95
2017-09-22T16:24:10.533Z,18.94
2017-09-22T16:26:38.838Z,18.98
2017-09-22T16:29:07.920Z,18.98
2017-09-22T16:31:36.242Z,18.92
2017-09-22T16:34:04.552Z,18.81
2017-09-22T16:36:32.866Z,18.64
2017-09-22T16:39:01.938Z,18.49
2017-09-22T16:41:30.270Z,18.32
2017-09-22T16:43:58.594Z,18.20
2017-09-22T16:46:26.913Z,18.09
2017-09-22T16:48:55.978Z,17.98
2017-09-22T16:51:24.296Z,17.87
2017-09-22T16:53:53.375Z,17.80
2017-09-22T16:56:21.688Z,17.72
2017-09-22T16:58:50.025Z,17.63
2017-09-22T17:01:18.325Z,17.56
2017-09-22T17:03:46.652Z,17.47
2017-09-22T17:06:14.963Z,17.36
2017-09-22T17:08:43.254Z,17.27
2017-09-22T17:11:11.568Z,17.18
2017-09-22T17:13:40.643Z,17.07
2017-09-22T17:16:08.945Z,16.97
2017-09-22T17:18:38.024Z,16.89
2017-09-22T17:21:06.318Z,16.79
2017-09-22T17:23:34.626Z,16.70
2017-09-22T17:26:02.933Z,16.61
2017-09-22T17:28:31.421Z,16.52
2017-09-22T17:30:59.706Z,16.45
2017-09-22T17:33:28.019Z,16.37
2017-09-22T17:35:56.352Z,16.30
2017-09-22T17:38:24.654Z,16.23
2017-09-22T17:40:52.961Z,16.16
2017-09-22T17:43:21.269Z,16.07
2017-09-22T17:45:50.336Z,16.02
2017-09-22T17:48:18.630Z,15.95
2017-09-22T17:50:46.951Z,15.89
2017-09-22T17:53:15.252Z,15.83
2017-09-22T17:55:43.583Z,15.77
2017-09-22T17:58:12.667Z,15.72
2017-09-22T18:00:40.965Z,15.66
2017-09-22T18:03:10.033Z,15.60
2017-09-22T18:05:38.483Z,15.55
2017-09-22T18:08:06.780Z,15.50
2017-09-22T18:10:35.076Z,15.46
2017-09-22T18:13:03.397Z,15.43
2017-09-22T18:15:32.463Z,15.39
2017-09-22T18:18:00.758Z,15.34
2017-09-22T18:20:29.067Z,15.31
2017-09-22T18:22:58.177Z,15.27
2017-09-22T18:25:26.471Z,15.24
2017-09-22T18:27:54.781Z,15.18
2017-09-22T18:30:23.080Z,15.15
2017-09-22T18:32:51.399Z,15.11
2017-09-22T18:35:19.711Z,15.07
2017-09-22T18:37:48.007Z,15.03
2017-09-22T18:40:16.317Z,14.97
2017-09-22T18:42:44.643Z,14.93
2017-09-22T18:45:12.995Z,14.92
2017-09-22T18:47:42.087Z,14.88
2017-09-22T18:50:10.387Z,14.87
2017-09-22T18:52:38.683Z,14.86
2017-09-22T18:55:07.025Z,14.84
2017-09-22T18:57:35.348Z,14.82
2017-09-22T19:00:03.650Z,14.84
2017-09-22T19:02:31.971Z,14.80
2017-09-22T19:05:01.046Z,14.75
2017-09-22T19:07:29.358Z,14.71
2017-09-22T19:09:58.478Z,14.64
2017-09-22T19:12:26.777Z,14.59
2017-09-22T19:14:55.077Z,14.54
2017-09-22T19:17:23.400Z,14.47
2017-09-22T19:19:52.466Z,14.42
2017-09-22T19:22:20.821Z,14.37
2017-09-22T19:24:49.151Z,14.33
2017-09-22T19:27:18.365Z,14.28
2017-09-22T19:29:46.676Z,14.26
2017-09-22T19:32:14.977Z,14.24
2017-09-22T19:34:43.283Z,14.20
2017-09-22T19:37:11.602Z,14.16
2017-09-22T19:39:40.700Z,14.12
2017-09-22T19:42:09.757Z,14.08
2017-09-22T19:44:38.081Z,14.03
2017-09-22T19:47:07.173Z,14.00
2017-09-22T19:49:36.249Z,13.96
2017-09-22T19:52:04.546Z,13.91
2017-09-22T19:54:33.702Z,13.87
2017-09-22T19:57:02.013Z,13.84
2017-09-22T19:59:30.316Z,13.78
2017-09-22T20:01:59.393Z,13.73
2017-09-22T20:04:27.715Z,13.70
2017-09-22T20:06:56.826Z,13.65
2017-09-22T20:09:25.134Z,13.58
2017-09-22T20:11:53.436Z,13.51
2017-09-22T20:14:21.763Z,13.47
2017-09-22T20:16:50.074Z,13.43
2017-09-22T20:19:18.417Z,13.38
2017-09-22T20:21:47.492Z,13.33
2017-09-22T20:24:15.824Z,13.30
2017-09-22T20:26:44.134Z,13.25
2017-09-22T20:29:12.450Z,13.24
2017-09-22T20:31:40.758Z,13.19
2017-09-22T20:34:09.091Z,13.16
2017-09-22T20:36:37.404Z,13.11
2017-09-22T20:39:07.154Z,13.06
2017-09-22T20:41:35.460Z,13.01
2017-09-22T20:44:03.775Z,12.98
2017-09-22T20:46:32.870Z,12.95
2017-09-22T20:49:01.960Z,12.92
2017-09-22T20:51:30.270Z,12.88
2017-09-22T20:53:58.602Z,12.84
2017-09-22T20:56:26.910Z,12.82
2017-09-22T20:58:55.225Z,12.79
2017-09-22T21:01:23.542Z,12.75
2017-09-22T21:03:51.863Z,12.70
2017-09-22T21:06:20.943Z,12.68
2017-09-22T21:08:49.263Z,12.64
2017-09-22T21:11:17.598Z,12.60
2017-09-22T21:13:45.908Z,12.57
2017-09-22T21:16:14.980Z,12.56
2017-09-22T21:18:43.311Z,12.51
2017-09-22T21:21:11.622Z,12.48
2017-09-22T21:23:39.925Z,12.47
2017-09-22T21:26:08.241Z,12.46
2017-09-22T21:28:37.343Z,12.47
2017-09-22T21:31:05.654Z,12.45
2017-09-22T21:33:33.954Z,12.43
2017-09-22T21:36:02.275Z,12.39
2017-09-22T21:38:31.356Z,12.37
2017-09-22T21:40:59.666Z,12.34
2017-09-22T21:43:28.765Z,12.32
2017-09-22T21:45:57.835Z,12.29
2017-09-22T21:48:26.148Z,12.27
2017-09-22T21:50:55.221Z,12.23
2017-09-22T21:53:23.567Z,12.22
2017-09-22T21:55:51.922Z,12.18
2017-09-22T21:58:20.291Z,12.15
2017-09-22T22:00:49.439Z,12.12
2017-09-22T22:03:23.334Z,12.09
2017-09-22T22:05:51.734Z,12.08
2017-09-22T22:08:20.097Z,12.06
2017-09-22T22:10:48.475Z,12.03
2017-09-22T22:13:16.959Z,12.03
2017-09-22T22:15:45.319Z,12.02
2017-09-22T22:18:14.487Z,12.01
2017-09-22T22:20:42.863Z,11.99
2017-09-22T22:23:11.235Z,11.98
2017-09-22T22:25:39.631Z,11.95
2017-09-22T22:28:07.999Z,11.93
2017-09-22T22:30:36.389Z,11.91
2017-09-22T22:33:04.788Z,11.92
2017-09-22T22:35:33.158Z,11.91
2017-09-22T22:38:01.569Z,11.88
2017-09-22T22:40:29.953Z,11.86
2017-09-22T22:42:58.336Z,11.86
2017-09-22T22:45:26.705Z,11.85
2017-09-22T22:47:55.070Z,11.82
2017-09-22T22:50:23.466Z,11.79
2017-09-22T22:52:51.852Z,11.77
2017-09-22T22:55:20.213Z,11.76
2017-09-22T22:57:48.591Z,11.74
2017-09-22T23:00:16.960Z,11.72
2017-09-22T23:02:45.348Z,11.72
2017-09-22T23:05:13.722Z,11.69
2017-09-22T23:07:42.094Z,11.67
2017-09-22T23:10:10.473Z,11.67
2017-09-22T23:12:38.839Z,11.64
2017-09-22T23:15:08.009Z,11.63
2017-09-22T23:17:36.390Z,11.59
2017-09-22T23:20:04.768Z,11.58
2017-09-22T23:22:33.167Z,11.56
2017-09-22T23:25:01.543Z,11.56
2017-09-22T23:27:29.923Z,11.57
2017-09-22T23:29:58.301Z,11.57
2017-09-22T23:32:26.681Z,11.55
2017-09-22T23:34:55.099Z,11.52
2017-09-22T23:37:23.488Z,11.50
2017-09-22T23:39:52.637Z,11.49
2017-09-22T23:42:21.023Z,11.45
2017-09-22T23:44:49.401Z,11.44
2017-09-22T23:47:17.795Z,11.41
2017-09-22T23:49:46.206Z,11.40
2017-09-22T23:52:14.575Z,11.39
2017-09-22T23:54:42.953Z,11.38
2017-09-22T23:57:11.339Z,11.35
2017-09-22T23:59:39.708Z,11.32
